createdAt,value
2017-10-13T00:01:43.828Z,19.20
2017-10-13T00:04:12.189Z,19.40
2017-10-13T00:06:39.756Z,16.90
2017-10-13T00:09:08.847Z,22.67
2017-10-13T00:11:37.943Z,16.90
2017-10-13T00:14:05.533Z,18.63
2017-10-13T00:16:33.857Z,21.30
2017-10-13T00:19:01.451Z,16.70
2017-10-13T00:21:29.016Z,22.13
2017-10-13T00:23:57.673Z,22.87
2017-10-13T00:26:25.241Z,23.67
2017-10-13T00:28:52.912Z,21.83
2017-10-13T00:31:20.476Z,19.23
2017-10-13T00:33:48.040Z,18.20
2017-10-13T00:36:16.396Z,27.57
2017-10-13T00:38:44.787Z,11.93
2017-10-13T00:41:12.356Z,11.73
2017-10-13T00:43:39.940Z,19.03
2017-10-13T00:46:08.267Z,33.03
2017-10-13T00:48:35.852Z,20.63
2017-10-13T00:51:03.416Z,21.40
2017-10-13T00:53:31.128Z,15.97
2017-10-13T00:55:58.740Z,20.97
2017-10-13T00:58:26.308Z,18.03
2017-10-13T01:00:53.898Z,14.20
2017-10-13T01:03:21.460Z,17.77
2017-10-13T01:05:49.069Z,14.85
2017-10-13T01:08:16.633Z,13.90
2017-10-13T01:10:46.668Z,23.90
2017-10-13T01:13:14.489Z,14.97
2017-10-13T01:15:44.202Z,18.47
2017-10-13T01:18:12.843Z,14.07
2017-10-13T01:20:41.781Z,15.93
2017-10-13T01:23:09.360Z,18.37
2017-10-13T01:25:36.925Z,26.77
2017-10-13T01:28:04.517Z,15.37
2017-10-13T01:30:32.849Z,16.30
2017-10-13T01:33:00.436Z,22.05
2017-10-13T01:35:27.996Z,14.40
2017-10-13T01:37:55.663Z,15.57
2017-10-13T01:40:23.224Z,10.40
2017-10-13T01:42:50.992Z,17.40
2017-10-13T01:45:18.557Z,21.27
2017-10-13T01:47:46.120Z,23.30
2017-10-13T01:50:14.472Z,14.43
2017-10-13T01:52:42.968Z,16.23
2017-10-13T01:55:11.328Z,21.47
2017-10-13T01:57:38.896Z,22.57
2017-10-13T02:00:06.488Z,13.03
2017-10-13T02:02:35.136Z,14.67
2017-10-13T02:05:02.725Z,16.23
2017-10-13T02:07:30.288Z,13.70
2017-10-13T02:09:58.656Z,15.70
2017-10-13T02:12:26.315Z,16.47
2017-10-13T02:14:53.904Z,11.85
2017-10-13T02:17:22.228Z,14.37
2017-10-13T02:19:49.811Z,10.60
2017-10-13T02:22:17.368Z,12.67
2017-10-13T02:24:45.800Z,21.87
2017-10-13T02:27:14.136Z,16.80
2017-10-13T02:29:41.721Z,16.80
2017-10-13T02:32:09.300Z,13.50
2017-10-13T02:34:36.888Z,13.23
2017-10-13T02:37:04.681Z,9.40
2017-10-13T02:39:32.263Z,12.60
2017-10-13T02:42:00.591Z,16.57
2017-10-13T02:44:28.390Z,9.60
2017-10-13T02:46:55.952Z,11.48
2017-10-13T02:49:23.512Z,13.10
2017-10-13T02:51:51.101Z,12.63
2017-10-13T02:54:19.428Z,16.50
2017-10-13T02:56:47.121Z,12.10
2017-10-13T02:59:14.697Z,16.10
2017-10-13T03:01:43.792Z,15.93
2017-10-13T03:04:12.120Z,17.53
2017-10-13T03:06:39.727Z,18.67
2017-10-13T03:09:08.048Z,9.77
2017-10-13T03:11:35.615Z,12.03
2017-10-13T03:14:03.313Z,9.77
2017-10-13T03:16:30.877Z,10.18
2017-10-13T03:18:58.472Z,14.13
2017-10-13T03:21:26.032Z,13.57
2017-10-13T03:23:53.615Z,15.77
2017-10-13T03:26:21.181Z,13.23
2017-10-13T03:28:48.767Z,9.40
2017-10-13T03:31:16.437Z,10.03
2017-10-13T03:33:46.091Z,21.80
2017-10-13T03:36:13.708Z,16.37
2017-10-13T03:38:41.811Z,12.93
2017-10-13T03:41:10.263Z,10.10
2017-10-13T03:43:37.815Z,8.00
2017-10-13T03:46:05.405Z,13.97
2017-10-13T03:48:33.731Z,10.50
2017-10-13T03:51:01.318Z,15.25
2017-10-13T03:53:28.983Z,17.92
2017-10-13T03:55:58.080Z,25.43
2017-10-13T03:58:25.645Z,14.60
2017-10-13T04:00:53.232Z,12.15
2017-10-13T04:03:21.560Z,15.57
2017-10-13T04:05:49.148Z,12.90
2017-10-13T04:08:16.712Z,14.30
2017-10-13T04:10:45.832Z,15.32
2017-10-13T04:13:14.155Z,12.90
2017-10-13T04:15:41.940Z,14.50
2017-10-13T04:18:09.500Z,18.50
2017-10-13T04:20:37.055Z,8.83
2017-10-13T04:23:04.646Z,15.97
2017-10-13T04:25:32.978Z,11.20
2017-10-13T04:28:00.569Z,11.50
2017-10-13T04:30:28.128Z,16.43
2017-10-13T04:32:55.720Z,15.07
2017-10-13T04:35:23.281Z,14.93
2017-10-13T04:37:50.871Z,15.82
2017-10-13T04:40:18.427Z,28.83
2017-10-13T04:42:46.203Z,10.30
2017-10-13T04:45:13.760Z,15.93
2017-10-13T04:47:41.351Z,19.07
2017-10-13T04:50:08.932Z,24.03
2017-10-13T04:52:37.264Z,17.67
2017-10-13T04:55:04.861Z,13.40
2017-10-13T04:57:32.420Z,22.40
2017-10-13T05:00:00.010Z,13.07
2017-10-13T05:02:27.572Z,15.23
2017-10-13T05:04:55.166Z,19.40
2017-10-13T05:07:22.744Z,24.93
2017-10-13T05:09:50.419Z,9.90
2017-10-13T05:12:17.977Z,13.13
2017-10-13T05:14:45.981Z,21.70
2017-10-13T05:17:14.316Z,22.37
2017-10-13T05:19:41.915Z,11.52
2017-10-13T05:22:10.253Z,16.90
2017-10-13T05:24:37.848Z,19.43
2017-10-13T05:27:06.184Z,16.93
2017-10-13T05:29:37.806Z,11.60
2017-10-13T05:32:05.389Z,10.37
2017-10-13T05:34:32.953Z,17.37
2017-10-13T05:37:00.648Z,10.90
2017-10-13T05:39:28.210Z,26.97
2017-10-13T05:41:55.872Z,13.83
2017-10-13T05:44:23.821Z,15.37
2017-10-13T05:46:51.391Z,23.60
2017-10-13T05:49:18.977Z,21.73
2017-10-13T05:51:47.312Z,24.47
2017-10-13T05:54:14.895Z,11.63
2017-10-13T05:56:43.904Z,17.77
2017-10-13T05:59:11.493Z,11.50
2017-10-13T06:01:39.060Z,17.33
2017-10-13T06:04:07.356Z,15.70
2017-10-13T06:06:34.921Z,15.67
2017-10-13T06:09:02.552Z,10.27
2017-10-13T06:11:30.113Z,17.83
2017-10-13T06:13:57.704Z,13.23
2017-10-13T06:16:25.264Z,16.20
2017-10-13T06:18:52.852Z,11.60
2017-10-13T06:21:20.421Z,16.80
2017-10-13T06:23:48.089Z,11.13
2017-10-13T06:26:15.653Z,18.77
2017-10-13T06:28:44.856Z,11.52
2017-10-13T06:31:13.517Z,16.63
2017-10-13T06:33:41.080Z,14.03
2017-10-13T06:36:08.641Z,14.33
2017-10-13T06:38:36.311Z,13.67
2017-10-13T06:41:03.972Z,10.70
2017-10-13T06:43:31.572Z,7.73
2017-10-13T06:45:59.209Z,11.02
2017-10-13T06:48:27.545Z,13.23
2017-10-13T06:50:55.149Z,18.53
2017-10-13T06:53:23.484Z,10.20
2017-10-13T06:55:51.076Z,15.85
2017-10-13T06:58:19.293Z,9.70
2017-10-13T07:00:46.875Z,6.45
2017-10-13T07:03:14.478Z,17.43
2017-10-13T07:05:43.060Z,11.57
2017-10-13T07:08:10.653Z,10.50
2017-10-13T07:10:38.220Z,17.93
2017-10-13T07:13:05.812Z,8.33
2017-10-13T07:15:33.376Z,12.83
2017-10-13T07:18:01.069Z,15.40
2017-10-13T07:20:28.636Z,13.13
2017-10-13T07:22:56.284Z,8.68
2017-10-13T07:25:23.950Z,7.70
2017-10-13T07:27:52.308Z,11.38
2017-10-13T07:30:19.989Z,16.27
2017-10-13T07:32:47.660Z,15.00
2017-10-13T07:35:15.316Z,14.87
2017-10-13T07:37:44.792Z,15.15
2017-10-13T07:40:12.364Z,11.53
2017-10-13T07:42:40.045Z,6.60
2017-10-13T07:45:07.632Z,10.97
2017-10-13T07:47:35.973Z,10.20
2017-10-13T07:50:05.173Z,9.97
2017-10-13T07:52:32.752Z,8.30
2017-10-13T07:55:00.379Z,10.93
2017-10-13T07:57:27.968Z,9.30
2017-10-13T07:59:55.760Z,11.82
2017-10-13T08:02:24.098Z,18.53
2017-10-13T08:04:51.677Z,11.57
2017-10-13T08:07:19.332Z,7.00
2017-10-13T08:09:46.896Z,19.67
2017-10-13T08:12:14.555Z,11.63
2017-10-13T08:14:44.037Z,5.33
2017-10-13T08:17:11.772Z,9.20
2017-10-13T08:19:39.346Z,11.83
2017-10-13T08:22:06.916Z,9.90
2017-10-13T08:24:34.500Z,7.50
2017-10-13T08:27:02.172Z,8.50
2017-10-13T08:29:29.832Z,7.10
2017-10-13T08:31:58.221Z,5.33
2017-10-13T08:34:25.879Z,10.03
2017-10-13T08:36:53.548Z,11.07
2017-10-13T08:39:21.136Z,8.00
2017-10-13T08:41:48.704Z,11.57
2017-10-13T08:44:16.523Z,5.30
2017-10-13T08:46:45.744Z,12.40
2017-10-13T08:49:14.072Z,7.60
2017-10-13T08:51:41.659Z,13.20
2017-10-13T08:54:09.229Z,12.77
2017-10-13T08:56:36.832Z,9.15
2017-10-13T08:59:04.633Z,10.00
2017-10-13T09:01:32.220Z,7.37
2017-10-13T09:03:59.800Z,7.70
2017-10-13T09:06:28.169Z,5.50
2017-10-13T09:08:56.506Z,8.40
2017-10-13T09:11:24.069Z,8.47
2017-10-13T09:13:51.656Z,9.73
2017-10-13T09:16:19.236Z,24.67
2017-10-13T09:18:47.595Z,22.37
2017-10-13T09:21:15.157Z,20.83
2017-10-13T09:23:44.765Z,13.85
2017-10-13T09:26:12.328Z,14.30
2017-10-13T09:28:39.925Z,12.50
2017-10-13T09:31:07.495Z,12.17
2017-10-13T09:33:35.089Z,13.63
2017-10-13T09:36:02.670Z,11.32
2017-10-13T09:38:30.328Z,16.03
2017-10-13T09:40:57.997Z,24.52
2017-10-13T09:43:25.620Z,6.97
2017-10-13T09:45:53.177Z,16.87
2017-10-13T09:48:20.744Z,18.37
2017-10-13T09:50:48.331Z,14.57
2017-10-13T09:53:15.917Z,9.00
2017-10-13T09:55:44.753Z,12.20
2017-10-13T09:58:12.724Z,11.17
2017-10-13T10:00:40.320Z,12.70
2017-10-13T10:03:07.887Z,13.20
2017-10-13T10:05:35.477Z,9.77
2017-10-13T10:08:03.048Z,8.60
2017-10-13T10:10:30.644Z,15.60
2017-10-13T10:12:58.213Z,9.93
2017-10-13T10:15:25.928Z,10.93
2017-10-13T10:17:53.500Z,12.23
2017-10-13T10:20:21.069Z,12.77
2017-10-13T10:22:48.665Z,11.67
2017-10-13T10:25:16.257Z,13.27
2017-10-13T10:27:44.696Z,11.90
2017-10-13T10:30:12.292Z,10.40
2017-10-13T10:32:40.620Z,7.87
2017-10-13T10:35:08.196Z,10.57
2017-10-13T10:37:35.797Z,14.03
2017-10-13T10:40:04.125Z,9.77
2017-10-13T10:42:32.232Z,6.77
2017-10-13T10:44:59.888Z,12.53
2017-10-13T10:47:27.509Z,11.03
2017-10-13T10:49:55.075Z,8.35
2017-10-13T10:52:22.668Z,10.23
2017-10-13T10:54:50.266Z,10.53
2017-10-13T10:57:17.893Z,8.27
2017-10-13T10:59:46.068Z,10.17
2017-10-13T11:02:14.202Z,11.60
2017-10-13T11:04:41.768Z,7.13
2017-10-13T11:07:09.359Z,7.47
2017-10-13T11:09:37.697Z,8.13
2017-10-13T11:12:05.376Z,13.57
2017-10-13T11:14:32.976Z,10.53
2017-10-13T11:17:01.316Z,11.55
2017-10-13T11:19:29.004Z,11.48
2017-10-13T11:21:56.855Z,8.73
2017-10-13T11:24:24.536Z,10.90
2017-10-13T11:26:52.882Z,5.63
2017-10-13T11:29:20.745Z,8.47
2017-10-13T11:31:48.308Z,5.10
2017-10-13T11:34:15.867Z,9.03
2017-10-13T11:36:44.793Z,6.43
2017-10-13T11:39:12.357Z,6.43
2017-10-13T11:41:39.919Z,7.97
2017-10-13T11:44:08.397Z,6.60
2017-10-13T11:46:35.964Z,6.93
2017-10-13T11:49:04.330Z,8.73
2017-10-13T11:51:33.498Z,14.93
2017-10-13T11:54:01.088Z,12.60
2017-10-13T11:56:28.672Z,7.00
2017-10-13T11:58:57.408Z,12.60
2017-10-13T12:01:24.972Z,7.63
2017-10-13T12:03:52.565Z,8.10
2017-10-13T12:06:20.136Z,16.63
2017-10-13T12:08:47.725Z,8.37
2017-10-13T12:11:15.288Z,8.47
2017-10-13T12:13:43.111Z,8.10
2017-10-13T12:16:10.688Z,6.87
2017-10-13T12:18:38.280Z,13.67
2017-10-13T12:21:05.854Z,9.73
2017-10-13T12:23:33.460Z,7.47
2017-10-13T12:26:01.024Z,7.23
2017-10-13T12:28:28.616Z,15.90
2017-10-13T12:30:56.534Z,9.48
2017-10-13T12:33:24.210Z,9.60
2017-10-13T12:35:51.792Z,10.25
2017-10-13T12:38:20.153Z,11.80
2017-10-13T12:40:47.744Z,6.07
2017-10-13T12:43:16.096Z,10.70
2017-10-13T12:45:45.697Z,7.35
2017-10-13T12:48:14.080Z,6.63
2017-10-13T12:50:41.739Z,7.33
2017-10-13T12:53:10.813Z,11.90
2017-10-13T12:55:38.404Z,17.20
2017-10-13T12:58:05.980Z,14.07
2017-10-13T13:00:34.426Z,12.47
2017-10-13T13:03:01.993Z,10.87
2017-10-13T13:05:29.764Z,9.13
2017-10-13T13:07:57.331Z,10.02
2017-10-13T13:10:24.892Z,10.83
2017-10-13T13:12:52.485Z,15.23
2017-10-13T13:15:20.396Z,8.23
2017-10-13T13:17:47.989Z,9.90
2017-10-13T13:20:16.323Z,7.97
2017-10-13T13:22:44.773Z,7.27
2017-10-13T13:25:12.344Z,6.43
2017-10-13T13:27:39.928Z,9.77
2017-10-13T13:30:07.496Z,7.80
2017-10-13T13:32:35.248Z,4.70
2017-10-13T13:35:02.849Z,5.63
2017-10-13T13:37:30.416Z,8.40
2017-10-13T13:39:58.776Z,8.77
2017-10-13T13:42:26.360Z,9.83
2017-10-13T13:44:54.697Z,8.43
2017-10-13T13:47:22.304Z,7.40
2017-10-13T13:49:50.642Z,6.12
2017-10-13T13:52:18.223Z,9.00
2017-10-13T13:54:46.804Z,9.63
2017-10-13T13:57:14.392Z,8.77
2017-10-13T13:59:43.646Z,6.73
2017-10-13T14:02:11.333Z,4.80
2017-10-13T14:04:39.656Z,5.53
2017-10-13T14:07:07.447Z,8.30
2017-10-13T14:09:35.008Z,4.50
2017-10-13T14:12:02.572Z,5.05
2017-10-13T14:14:30.160Z,7.27
2017-10-13T14:16:58.504Z,8.77
2017-10-13T14:19:26.104Z,5.67
2017-10-13T14:21:53.676Z,11.20
2017-10-13T14:24:22.028Z,7.00
2017-10-13T14:26:49.588Z,7.28
2017-10-13T14:29:17.265Z,7.00
2017-10-13T14:31:45.756Z,7.13
2017-10-13T14:34:13.345Z,12.70
2017-10-13T14:36:40.916Z,10.73
2017-10-13T14:39:08.500Z,12.20
2017-10-13T14:41:36.064Z,8.90
2017-10-13T14:44:03.759Z,9.60
2017-10-13T14:46:31.332Z,11.30
2017-10-13T14:48:59.660Z,8.17
2017-10-13T14:51:27.249Z,6.17
2017-10-13T14:53:54.820Z,5.35
2017-10-13T14:56:22.413Z,3.80
2017-10-13T14:58:49.975Z,7.97
2017-10-13T15:01:17.565Z,9.17
2017-10-13T15:03:46.460Z,5.50
2017-10-13T15:06:14.044Z,5.20
2017-10-13T15:08:41.603Z,7.37
2017-10-13T15:11:09.196Z,6.53
2017-10-13T15:13:37.524Z,7.50
2017-10-13T15:16:05.112Z,6.57
2017-10-13T15:18:32.695Z,11.33
2017-10-13T15:21:01.024Z,5.43
2017-10-13T15:23:28.612Z,5.57
2017-10-13T15:25:56.961Z,6.20
2017-10-13T15:28:30.195Z,7.03
2017-10-13T15:31:01.602Z,7.10
2017-10-13T15:33:35.128Z,6.40
2017-10-13T15:36:08.500Z,6.57
2017-10-13T15:38:41.813Z,5.57
2017-10-13T15:41:15.164Z,5.17
2017-10-13T15:43:49.704Z,11.05
2017-10-13T15:46:22.863Z,10.73
2017-10-13T15:48:57.036Z,5.93
2017-10-13T15:51:30.301Z,5.50
2017-10-13T15:53:57.887Z,6.00
2017-10-13T15:56:25.476Z,6.67
2017-10-13T15:58:53.846Z,7.20
2017-10-13T16:01:21.432Z,7.77
2017-10-13T16:03:49.768Z,6.20
2017-10-13T16:06:17.364Z,7.60
2017-10-13T16:08:45.936Z,4.77
2017-10-13T16:11:13.550Z,4.53
2017-10-13T16:13:41.154Z,6.80
2017-10-13T16:16:08.749Z,7.70
2017-10-13T16:18:36.376Z,6.73
2017-10-13T16:21:03.940Z,7.57
2017-10-13T16:23:31.558Z,6.63
2017-10-13T16:25:59.169Z,7.00
2017-10-13T16:28:27.588Z,11.97
2017-10-13T16:30:55.176Z,9.27
2017-10-13T16:33:22.742Z,15.00
2017-10-13T16:35:50.421Z,11.56
2017-10-13T16:38:17.988Z,10.10
2017-10-13T16:40:46.665Z,23.57
2017-10-13T16:43:14.229Z,10.10
2017-10-13T16:45:41.821Z,12.63
2017-10-13T16:48:10.152Z,13.57
2017-10-13T16:50:37.856Z,14.77
2017-10-13T16:53:06.184Z,14.20
2017-10-13T16:55:33.753Z,13.70
2017-10-13T16:58:01.436Z,11.87
2017-10-13T17:00:29.008Z,12.03
2017-10-13T17:02:57.485Z,10.87
2017-10-13T17:05:25.057Z,12.80
2017-10-13T17:07:53.448Z,19.03
2017-10-13T17:10:21.781Z,24.20
2017-10-13T17:12:49.353Z,14.43
2017-10-13T17:15:17.720Z,19.33
2017-10-13T17:17:46.541Z,18.77
2017-10-13T17:20:14.900Z,16.60
2017-10-13T17:22:44.156Z,17.13
2017-10-13T17:25:11.752Z,18.80
2017-10-13T17:27:39.316Z,23.50
2017-10-13T17:30:06.905Z,16.07
2017-10-13T17:32:35.252Z,14.20
2017-10-13T17:35:02.853Z,14.93
2017-10-13T17:37:31.194Z,16.53
2017-10-13T17:39:58.772Z,23.43
2017-10-13T17:42:26.368Z,23.97
2017-10-13T17:44:53.936Z,17.47
2017-10-13T17:47:21.497Z,16.97
2017-10-13T17:49:49.088Z,16.40
2017-10-13T17:52:16.652Z,14.00
2017-10-13T17:54:45.788Z,16.23
2017-10-13T17:57:14.132Z,17.77
2017-10-13T17:59:41.724Z,17.17
2017-10-13T18:02:10.060Z,23.30
2017-10-13T18:04:37.658Z,24.63
2017-10-13T18:07:05.996Z,17.50
2017-10-13T18:09:33.583Z,19.30
2017-10-13T18:12:01.151Z,15.57
2017-10-13T18:14:28.745Z,13.60
2017-10-13T18:16:56.336Z,14.82
2017-10-13T18:19:24.140Z,21.33
2017-10-13T18:21:51.718Z,18.03
2017-10-13T18:24:20.408Z,22.60
2017-10-13T18:26:49.988Z,24.85
2017-10-13T18:29:17.704Z,19.60
2017-10-13T18:31:46.765Z,18.07
2017-10-13T18:34:15.522Z,20.43
2017-10-13T18:36:45.660Z,24.40
2017-10-13T18:39:14.008Z,23.80
2017-10-13T18:41:41.763Z,19.63
2017-10-13T18:44:09.345Z,26.53
2017-10-13T18:46:36.923Z,20.00
2017-10-13T18:49:04.589Z,21.03
2017-10-13T18:51:32.923Z,22.53
2017-10-13T18:54:00.533Z,23.57
2017-10-13T18:56:28.912Z,22.53
2017-10-13T18:58:57.387Z,19.90
2017-10-13T19:01:26.465Z,16.63
2017-10-13T19:03:54.153Z,16.75
2017-10-13T19:06:22.504Z,21.77
2017-10-13T19:08:50.192Z,20.90
2017-10-13T19:11:17.764Z,20.00
2017-10-13T19:13:46.552Z,25.07
2017-10-13T19:16:14.897Z,17.53
2017-10-13T19:18:45.120Z,30.12
2017-10-13T19:21:12.687Z,27.30
2017-10-13T19:23:40.468Z,19.43
2017-10-13T19:26:08.132Z,19.50
2017-10-13T19:28:35.696Z,21.30
2017-10-13T19:31:03.295Z,18.80
2017-10-13T19:33:30.869Z,21.87
2017-10-13T19:35:58.472Z,19.17
2017-10-13T19:38:27.548Z,22.50
2017-10-13T19:40:55.190Z,24.75
2017-10-13T19:43:22.788Z,22.27
2017-10-13T19:45:50.363Z,21.83
2017-10-13T19:48:18.003Z,24.43
2017-10-13T19:50:46.581Z,29.50
2017-10-13T19:53:14.185Z,19.87
2017-10-13T19:55:43.444Z,22.10
2017-10-13T19:58:11.984Z,22.83
2017-10-13T20:00:39.556Z,20.07
2017-10-13T20:03:07.152Z,21.30
2017-10-13T20:05:34.720Z,23.53
2017-10-13T20:08:02.496Z,27.48
2017-10-13T20:10:30.077Z,22.17
2017-10-13T20:12:58.421Z,24.83
2017-10-13T20:15:26.020Z,18.53
2017-10-13T20:17:54.385Z,26.57
2017-10-13T20:20:22.727Z,20.63
2017-10-13T20:22:50.485Z,24.63
2017-10-13T20:25:18.057Z,25.10
2017-10-13T20:27:45.900Z,20.65
2017-10-13T20:30:13.712Z,18.60
2017-10-13T20:32:41.281Z,23.67
2017-10-13T20:35:09.615Z,22.80
2017-10-13T20:37:37.220Z,23.20
2017-10-13T20:40:05.693Z,23.42
2017-10-13T20:42:33.264Z,19.20
2017-10-13T20:45:01.629Z,22.77
2017-10-13T20:47:29.296Z,21.10
2017-10-13T20:49:56.933Z,28.87
2017-10-13T20:52:24.529Z,25.80
2017-10-13T20:54:52.896Z,20.03
2017-10-13T20:57:20.468Z,20.30
2017-10-13T20:59:49.124Z,28.93
2017-10-13T21:02:16.697Z,21.30
2017-10-13T21:04:46.201Z,21.67
2017-10-13T21:07:14.540Z,20.53
2017-10-13T21:09:43.065Z,22.10
2017-10-13T21:12:10.628Z,19.60
2017-10-13T21:14:39.728Z,20.30
2017-10-13T21:17:07.392Z,21.10
2017-10-13T21:19:35.056Z,20.23
2017-10-13T21:22:02.628Z,24.83
2017-10-13T21:24:30.981Z,23.57
2017-10-13T21:26:58.548Z,21.70
2017-10-13T21:29:26.216Z,23.43
2017-10-13T21:31:53.880Z,24.85
2017-10-13T21:34:21.472Z,33.17
2017-10-13T21:36:49.804Z,23.10
2017-10-13T21:39:17.373Z,31.73
2017-10-13T21:41:46.580Z,23.30
2017-10-13T21:44:14.241Z,22.50
2017-10-13T21:46:41.841Z,32.53
2017-10-13T21:49:09.407Z,30.93
2017-10-13T21:51:37.028Z,30.03
2017-10-13T21:54:04.600Z,25.67
2017-10-13T21:56:32.964Z,32.57
2017-10-13T21:59:02.041Z,32.23
2017-10-13T22:01:29.661Z,33.93
2017-10-13T22:03:57.232Z,31.37
2017-10-13T22:06:24.808Z,32.47
2017-10-13T22:08:52.408Z,31.40
2017-10-13T22:11:20.068Z,33.85
2017-10-13T22:13:47.675Z,48.23
2017-10-13T22:16:15.263Z,34.27
2017-10-13T22:18:44.787Z,37.33
2017-10-13T22:21:12.418Z,39.30
2017-10-13T22:23:40.033Z,35.93
2017-10-13T22:26:08.381Z,39.30
2017-10-13T22:28:35.957Z,34.13
2017-10-13T22:31:03.552Z,34.80
2017-10-13T22:33:31.128Z,33.87
2017-10-13T22:35:58.720Z,40.40
2017-10-13T22:38:26.289Z,38.00
2017-10-13T22:40:53.880Z,37.03
2017-10-13T22:43:22.208Z,40.90
2017-10-13T22:45:50.088Z,43.58
2017-10-13T22:48:17.661Z,31.60
2017-10-13T22:50:46.685Z,40.67
2017-10-13T22:53:15.025Z,42.47
2017-10-13T22:55:44.751Z,41.28
2017-10-13T22:58:12.352Z,38.43
2017-10-13T23:00:39.937Z,49.63
2017-10-13T23:03:07.539Z,38.70
2017-10-13T23:05:35.100Z,46.10
2017-10-13T23:08:02.720Z,41.63
2017-10-13T23:10:30.320Z,40.27
2017-10-13T23:12:58.804Z,47.20
2017-10-13T23:15:26.372Z,43.13
2017-10-13T23:17:53.941Z,40.23
2017-10-13T23:20:22.297Z,45.90
2017-10-13T23:22:49.868Z,45.22
2017-10-13T23:25:17.461Z,43.17
2017-10-13T23:27:46.605Z,45.83
2017-10-13T23:30:14.389Z,38.90
2017-10-13T23:32:41.960Z,49.80
2017-10-13T23:35:10.339Z,42.17
2017-10-13T23:37:38.681Z,54.60
2017-10-13T23:40:06.273Z,47.10
2017-10-13T23:42:34.628Z,39.23
2017-10-13T23:45:02.204Z,45.83
2017-10-13T23:47:29.799Z,50.97
2017-10-13T23:49:57.437Z,48.53
2017-10-13T23:52:25.020Z,56.20
2017-10-13T23:54:52.596Z,43.60
2017-10-13T23:57:20.213Z,42.35
2017-10-13T23:59:47.792Z,60.22
